Dati meteorologici dell'aviazione (METAR)     LSZH Zürich Airport
Temperatura
3°C Temperatura
-1°C Punto di rugiada
75% Umidità



Vento
11 KM/O
7 MPH
3 M/S
6 KTS



140°
SE
Condizioni attuali

Parzialmente nuvoloso Parzialmente nuvoloso
Pressione 998.98 (hPa) - 29.5 (inHg)
Visibilità 6 (miglio) - 9.7 (km)
Aeroporto
Codice-Aeroporto LSZH

Posizione: Zürich Airport
Distanza: 60 (km)

Metar:
LSZH 232050Z 14006KT 9999 FEW051 03/M01 Q0999 NOSIG

Ore: 23-02-2024 21:50 CET